sensor_id;sensor_type;location;lat;lon;timestamp;P1;durP1;ratioP1;P2;durP2;ratioP2
75506;SDS011;64086;43.220;27.878;2023-07-13T00:01:43;20.52;;;18.92;;
75506;SDS011;64086;43.220;27.878;2023-07-13T00:04:11;20.15;;;18.60;;
75506;SDS011;64086;43.220;27.878;2023-07-13T00:06:36;20.40;;;18.80;;
75506;SDS011;64086;43.220;27.878;2023-07-13T00:09:02;20.77;;;19.17;;
75506;SDS011;64086;43.220;27.878;2023-07-13T00:11:27;21.73;;;19.88;;
75506;SDS011;64086;43.220;27.878;2023-07-13T00:13:53;20.52;;;18.67;;
75506;SDS011;64086;43.220;27.878;2023-07-13T00:16:18;19.13;;;17.48;;
75506;SDS011;64086;43.220;27.878;2023-07-13T00:18:44;20.08;;;18.45;;
75506;SDS011;64086;43.220;27.878;2023-07-13T00:21:10;19.92;;;18.27;;
75506;SDS011;64086;43.220;27.878;2023-07-13T00:23:37;20.17;;;18.55;;
75506;SDS011;64086;43.220;27.878;2023-07-13T00:26:05;19.92;;;18.25;;
75506;SDS011;64086;43.220;27.878;2023-07-13T00:28:32;19.90;;;18.35;;
75506;SDS011;64086;43.220;27.878;2023-07-13T00:30:58;20.58;;;18.85;;
75506;SDS011;64086;43.220;27.878;2023-07-13T00:33:23;20.52;;;18.70;;
75506;SDS011;64086;43.220;27.878;2023-07-13T00:35:49;20.88;;;19.17;;
75506;SDS011;64086;43.220;27.878;2023-07-13T00:38:15;23.73;;;21.92;;
75506;SDS011;64086;43.220;27.878;2023-07-13T00:40:40;20.35;;;18.70;;
75506;SDS011;64086;43.220;27.878;2023-07-13T00:43:17;19.85;;;18.20;;
75506;SDS011;64086;43.220;27.878;2023-07-13T00:48:14;21.10;;;19.17;;
75506;SDS011;64086;43.220;27.878;2023-07-13T00:50:43;20.33;;;18.73;;
75506;SDS011;64086;43.220;27.878;2023-07-13T00:53:10;18.30;;;16.88;;
75506;SDS011;64086;43.220;27.878;2023-07-13T00:55:36;19.98;;;18.42;;
75506;SDS011;64086;43.220;27.878;2023-07-13T00:58:02;19.65;;;18.00;;
75506;SDS011;64086;43.220;27.878;2023-07-13T01:00:29;20.05;;;18.35;;
75506;SDS011;64086;43.220;27.878;2023-07-13T01:02:55;19.27;;;17.67;;
75506;SDS011;64086;43.220;27.878;2023-07-13T01:05:22;20.10;;;18.40;;
75506;SDS011;64086;43.220;27.878;2023-07-13T01:07:48;20.30;;;18.73;;
75506;SDS011;64086;43.220;27.878;2023-07-13T01:10:15;19.80;;;18.15;;
75506;SDS011;64086;43.220;27.878;2023-07-13T01:12:40;20.88;;;19.17;;
75506;SDS011;64086;43.220;27.878;2023-07-13T01:15:32;20.27;;;18.35;;
75506;SDS011;64086;43.220;27.878;2023-07-13T01:18:21;19.73;;;18.13;;
75506;SDS011;64086;43.220;27.878;2023-07-13T01:20:59;20.55;;;18.92;;
75506;SDS011;64086;43.220;27.878;2023-07-13T01:23:26;20.83;;;19.23;;
75506;SDS011;64086;43.220;27.878;2023-07-13T01:25:53;20.77;;;18.95;;
75506;SDS011;64086;43.220;27.878;2023-07-13T01:28:20;21.17;;;19.25;;
75506;SDS011;64086;43.220;27.878;2023-07-13T01:30:46;21.30;;;19.55;;
75506;SDS011;64086;43.220;27.878;2023-07-13T01:33:12;21.15;;;19.45;;
75506;SDS011;64086;43.220;27.878;2023-07-13T01:35:39;20.73;;;19.02;;
75506;SDS011;64086;43.220;27.878;2023-07-13T01:38:04;22.15;;;20.27;;
75506;SDS011;64086;43.220;27.878;2023-07-13T01:40:30;21.08;;;19.23;;
75506;SDS011;64086;43.220;27.878;2023-07-13T01:42:56;22.83;;;20.80;;
75506;SDS011;64086;43.220;27.878;2023-07-13T01:45:22;21.77;;;19.73;;
75506;SDS011;64086;43.220;27.878;2023-07-13T01:47:48;21.33;;;19.52;;
75506;SDS011;64086;43.220;27.878;2023-07-13T01:50:13;21.85;;;20.00;;
75506;SDS011;64086;43.220;27.878;2023-07-13T01:52:39;20.90;;;19.00;;
75506;SDS011;64086;43.220;27.878;2023-07-13T01:55:04;21.30;;;19.33;;
75506;SDS011;64086;43.220;27.878;2023-07-13T01:57:30;21.27;;;19.45;;
75506;SDS011;64086;43.220;27.878;2023-07-13T01:59:55;20.80;;;19.00;;
75506;SDS011;64086;43.220;27.878;2023-07-13T02:02:21;19.88;;;18.08;;
75506;SDS011;64086;43.220;27.878;2023-07-13T02:04:46;21.58;;;19.75;;
75506;SDS011;64086;43.220;27.878;2023-07-13T02:07:11;21.38;;;19.45;;
75506;SDS011;64086;43.220;27.878;2023-07-13T02:09:37;21.27;;;19.30;;
75506;SDS011;64086;43.220;27.878;2023-07-13T02:12:02;19.92;;;18.27;;
75506;SDS011;64086;43.220;27.878;2023-07-13T02:14:28;20.02;;;18.35;;
75506;SDS011;64086;43.220;27.878;2023-07-13T02:16:54;20.65;;;18.90;;
75506;SDS011;64086;43.220;27.878;2023-07-13T02:19:19;20.33;;;18.38;;
75506;SDS011;64086;43.220;27.878;2023-07-13T02:21:45;19.98;;;18.05;;
75506;SDS011;64086;43.220;27.878;2023-07-13T02:24:10;17.77;;;15.98;;
75506;SDS011;64086;43.220;27.878;2023-07-13T02:26:42;16.63;;;15.23;;
75506;SDS011;64086;43.220;27.878;2023-07-13T02:29:08;16.55;;;15.05;;
75506;SDS011;64086;43.220;27.878;2023-07-13T02:31:33;16.13;;;14.82;;
75506;SDS011;64086;43.220;27.878;2023-07-13T02:33:59;16.85;;;15.35;;
75506;SDS011;64086;43.220;27.878;2023-07-13T02:36:25;17.63;;;16.08;;
75506;SDS011;64086;43.220;27.878;2023-07-13T02:38:50;17.98;;;16.27;;
75506;SDS011;64086;43.220;27.878;2023-07-13T02:41:16;17.83;;;16.23;;
75506;SDS011;64086;43.220;27.878;2023-07-13T02:43:41;17.55;;;15.85;;
75506;SDS011;64086;43.220;27.878;2023-07-13T02:46:06;18.38;;;16.58;;
75506;SDS011;64086;43.220;27.878;2023-07-13T02:48:36;18.17;;;16.33;;
75506;SDS011;64086;43.220;27.878;2023-07-13T02:51:02;17.92;;;16.23;;
75506;SDS011;64086;43.220;27.878;2023-07-13T02:53:27;19.27;;;17.38;;
75506;SDS011;64086;43.220;27.878;2023-07-13T02:55:53;18.92;;;17.33;;
75506;SDS011;64086;43.220;27.878;2023-07-13T02:58:18;18.40;;;16.67;;
75506;SDS011;64086;43.220;27.878;2023-07-13T03:00:44;19.48;;;17.35;;
75506;SDS011;64086;43.220;27.878;2023-07-13T03:03:11;20.38;;;18.58;;
75506;SDS011;64086;43.220;27.878;2023-07-13T03:05:40;18.98;;;17.27;;
75506;SDS011;64086;43.220;27.878;2023-07-13T03:08:07;19.85;;;17.95;;
75506;SDS011;64086;43.220;27.878;2023-07-13T03:10:33;19.67;;;17.90;;
75506;SDS011;64086;43.220;27.878;2023-07-13T03:12:58;19.35;;;17.30;;
75506;SDS011;64086;43.220;27.878;2023-07-13T03:15:24;20.27;;;17.83;;
75506;SDS011;64086;43.220;27.878;2023-07-13T03:17:49;18.65;;;17.05;;
75506;SDS011;64086;43.220;27.878;2023-07-13T03:20:15;18.45;;;16.75;;
75506;SDS011;64086;43.220;27.878;2023-07-13T03:22:41;18.50;;;16.52;;
75506;SDS011;64086;43.220;27.878;2023-07-13T03:25:07;18.25;;;16.55;;
75506;SDS011;64086;43.220;27.878;2023-07-13T03:27:32;23.42;;;19.40;;
75506;SDS011;64086;43.220;27.878;2023-07-13T03:29:58;19.38;;;17.48;;
75506;SDS011;64086;43.220;27.878;2023-07-13T03:32:23;20.63;;;18.85;;
75506;SDS011;64086;43.220;27.878;2023-07-13T03:34:49;20.10;;;18.35;;
75506;SDS011;64086;43.220;27.878;2023-07-13T03:37:14;20.55;;;18.50;;
75506;SDS011;64086;43.220;27.878;2023-07-13T03:39:40;18.08;;;16.58;;
75506;SDS011;64086;43.220;27.878;2023-07-13T03:42:05;19.33;;;17.73;;
75506;SDS011;64086;43.220;27.878;2023-07-13T03:44:31;18.50;;;16.77;;
75506;SDS011;64086;43.220;27.878;2023-07-13T03:46:57;18.25;;;16.52;;
75506;SDS011;64086;43.220;27.878;2023-07-13T03:49:22;17.35;;;15.90;;
75506;SDS011;64086;43.220;27.878;2023-07-13T03:51:47;17.55;;;16.05;;
75506;SDS011;64086;43.220;27.878;2023-07-13T03:54:13;17.02;;;15.35;;
75506;SDS011;64086;43.220;27.878;2023-07-13T03:56:38;18.02;;;16.23;;
75506;SDS011;64086;43.220;27.878;2023-07-13T03:59:04;17.38;;;14.63;;
75506;SDS011;64086;43.220;27.878;2023-07-13T04:01:29;18.50;;;16.50;;
75506;SDS011;64086;43.220;27.878;2023-07-13T04:03:55;17.40;;;15.60;;
75506;SDS011;64086;43.220;27.878;2023-07-13T04:06:21;18.35;;;15.07;;
75506;SDS011;64086;43.220;27.878;2023-07-13T04:08:59;15.95;;;14.35;;
75506;SDS011;64086;43.220;27.878;2023-07-13T04:11:29;16.73;;;13.75;;
75506;SDS011;64086;43.220;27.878;2023-07-13T04:13:56;17.67;;;14.93;;
75506;SDS011;64086;43.220;27.878;2023-07-13T04:16:22;14.82;;;13.48;;
75506;SDS011;64086;43.220;27.878;2023-07-13T04:18:48;16.23;;;14.73;;
75506;SDS011;64086;43.220;27.878;2023-07-13T04:21:14;16.00;;;14.18;;
75506;SDS011;64086;43.220;27.878;2023-07-13T04:23:40;15.35;;;13.25;;
75506;SDS011;64086;43.220;27.878;2023-07-13T04:26:06;14.98;;;13.65;;
75506;SDS011;64086;43.220;27.878;2023-07-13T04:28:32;16.60;;;14.15;;
75506;SDS011;64086;43.220;27.878;2023-07-13T04:30:58;15.48;;;14.10;;
75506;SDS011;64086;43.220;27.878;2023-07-13T04:33:23;18.35;;;15.20;;
75506;SDS011;64086;43.220;27.878;2023-07-13T04:35:50;16.88;;;15.05;;
75506;SDS011;64086;43.220;27.878;2023-07-13T04:38:21;15.45;;;13.93;;
75506;SDS011;64086;43.220;27.878;2023-07-13T04:40:53;15.77;;;14.38;;
75506;SDS011;64086;43.220;27.878;2023-07-13T04:43:23;17.40;;;14.77;;
75506;SDS011;64086;43.220;27.878;2023-07-13T04:45:50;15.50;;;13.98;;
75506;SDS011;64086;43.220;27.878;2023-07-13T04:48:16;16.98;;;14.63;;
75506;SDS011;64086;43.220;27.878;2023-07-13T04:50:41;17.33;;;15.52;;
75506;SDS011;64086;43.220;27.878;2023-07-13T04:53:08;15.30;;;13.95;;
75506;SDS011;64086;43.220;27.878;2023-07-13T04:55:34;20.10;;;14.48;;
75506;SDS011;64086;43.220;27.878;2023-07-13T04:57:59;16.33;;;14.63;;
75506;SDS011;64086;43.220;27.878;2023-07-13T05:00:25;16.10;;;13.90;;
75506;SDS011;64086;43.220;27.878;2023-07-13T05:02:51;16.40;;;14.85;;
75506;SDS011;64086;43.220;27.878;2023-07-13T05:05:16;20.65;;;16.17;;
75506;SDS011;64086;43.220;27.878;2023-07-13T05:07:42;19.23;;;16.08;;
75506;SDS011;64086;43.220;27.878;2023-07-13T05:10:08;20.17;;;15.80;;
75506;SDS011;64086;43.220;27.878;2023-07-13T05:12:34;17.88;;;15.93;;
75506;SDS011;64086;43.220;27.878;2023-07-13T05:14:59;21.13;;;17.80;;
75506;SDS011;64086;43.220;27.878;2023-07-13T05:17:24;17.38;;;15.63;;
75506;SDS011;64086;43.220;27.878;2023-07-13T05:19:50;18.10;;;15.73;;
75506;SDS011;64086;43.220;27.878;2023-07-13T05:22:15;17.55;;;16.05;;
75506;SDS011;64086;43.220;27.878;2023-07-13T05:24:41;21.17;;;17.05;;
75506;SDS011;64086;43.220;27.878;2023-07-13T05:27:06;22.42;;;17.70;;
75506;SDS011;64086;43.220;27.878;2023-07-13T05:29:32;17.40;;;15.63;;
75506;SDS011;64086;43.220;27.878;2023-07-13T05:31:57;18.85;;;16.98;;
75506;SDS011;64086;43.220;27.878;2023-07-13T05:34:22;17.30;;;15.63;;
75506;SDS011;64086;43.220;27.878;2023-07-13T05:36:48;17.75;;;15.10;;
75506;SDS011;64086;43.220;27.878;2023-07-13T05:39:14;24.50;;;16.15;;
75506;SDS011;64086;43.220;27.878;2023-07-13T05:41:40;17.95;;;16.05;;
75506;SDS011;64086;43.220;27.878;2023-07-13T05:44:05;17.90;;;16.05;;
75506;SDS011;64086;43.220;27.878;2023-07-13T05:46:31;18.08;;;16.38;;
75506;SDS011;64086;43.220;27.878;2023-07-13T05:48:56;16.52;;;15.05;;
75506;SDS011;64086;43.220;27.878;2023-07-13T05:51:22;17.52;;;15.63;;
75506;SDS011;64086;43.220;27.878;2023-07-13T05:53:47;17.48;;;15.98;;
75506;SDS011;64086;43.220;27.878;2023-07-13T05:56:13;18.95;;;14.35;;
75506;SDS011;64086;43.220;27.878;2023-07-13T05:58:38;16.83;;;14.65;;
75506;SDS011;64086;43.220;27.878;2023-07-13T06:01:09;15.93;;;14.25;;
75506;SDS011;64086;43.220;27.878;2023-07-13T06:03:36;16.23;;;14.65;;
75506;SDS011;64086;43.220;27.878;2023-07-13T06:06:05;16.20;;;14.93;;
75506;SDS011;64086;43.220;27.878;2023-07-13T06:08:31;16.58;;;14.98;;
75506;SDS011;64086;43.220;27.878;2023-07-13T06:11:09;16.42;;;15.02;;
75506;SDS011;64086;43.220;27.878;2023-07-13T06:13:37;16.67;;;15.25;;
75506;SDS011;64086;43.220;27.878;2023-07-13T06:16:03;16.50;;;15.05;;
75506;SDS011;64086;43.220;27.878;2023-07-13T06:18:33;16.85;;;15.52;;
75506;SDS011;64086;43.220;27.878;2023-07-13T06:20:59;16.27;;;14.70;;
75506;SDS011;64086;43.220;27.878;2023-07-13T06:23:24;16.98;;;15.68;;
75506;SDS011;64086;43.220;27.878;2023-07-13T06:25:50;17.80;;;16.45;;
75506;SDS011;64086;43.220;27.878;2023-07-13T06:28:15;16.65;;;15.27;;
75506;SDS011;64086;43.220;27.878;2023-07-13T06:30:41;16.95;;;15.35;;
75506;SDS011;64086;43.220;27.878;2023-07-13T06:33:06;17.55;;;15.93;;
75506;SDS011;64086;43.220;27.878;2023-07-13T06:35:32;17.02;;;15.48;;
75506;SDS011;64086;43.220;27.878;2023-07-13T06:37:57;17.23;;;15.85;;
75506;SDS011;64086;43.220;27.878;2023-07-13T06:40:23;16.77;;;15.45;;
75506;SDS011;64086;43.220;27.878;2023-07-13T06:42:48;17.77;;;16.05;;
75506;SDS011;64086;43.220;27.878;2023-07-13T06:45:13;19.38;;;17.60;;
75506;SDS011;64086;43.220;27.878;2023-07-13T06:47:39;18.58;;;16.80;;
75506;SDS011;64086;43.220;27.878;2023-07-13T06:50:04;21.42;;;18.70;;
75506;SDS011;64086;43.220;27.878;2023-07-13T06:52:30;17.85;;;16.55;;
75506;SDS011;64086;43.220;27.878;2023-07-13T06:54:56;17.77;;;16.40;;
75506;SDS011;64086;43.220;27.878;2023-07-13T06:57:21;17.60;;;16.20;;
75506;SDS011;64086;43.220;27.878;2023-07-13T06:59:47;17.05;;;15.70;;
75506;SDS011;64086;43.220;27.878;2023-07-13T07:02:12;18.88;;;17.05;;
75506;SDS011;64086;43.220;27.878;2023-07-13T07:04:37;18.92;;;17.42;;
75506;SDS011;64086;43.220;27.878;2023-07-13T07:07:03;18.38;;;16.83;;
75506;SDS011;64086;43.220;27.878;2023-07-13T07:09:28;18.88;;;17.02;;
75506;SDS011;64086;43.220;27.878;2023-07-13T07:11:56;18.38;;;16.88;;
75506;SDS011;64086;43.220;27.878;2023-07-13T07:14:21;19.42;;;17.83;;
75506;SDS011;64086;43.220;27.878;2023-07-13T07:16:47;20.60;;;18.67;;
75506;SDS011;64086;43.220;27.878;2023-07-13T07:19:12;19.88;;;18.25;;
75506;SDS011;64086;43.220;27.878;2023-07-13T07:21:38;21.27;;;19.27;;
75506;SDS011;64086;43.220;27.878;2023-07-13T07:24:04;20.38;;;18.77;;
75506;SDS011;64086;43.220;27.878;2023-07-13T07:26:30;19.20;;;17.52;;
75506;SDS011;64086;43.220;27.878;2023-07-13T07:28:55;20.85;;;18.92;;
75506;SDS011;64086;43.220;27.878;2023-07-13T07:31:21;21.80;;;19.30;;
75506;SDS011;64086;43.220;27.878;2023-07-13T07:33:46;19.85;;;18.38;;
75506;SDS011;64086;43.220;27.878;2023-07-13T07:36:12;19.15;;;17.73;;
75506;SDS011;64086;43.220;27.878;2023-07-13T07:38:37;19.80;;;18.38;;
75506;SDS011;64086;43.220;27.878;2023-07-13T07:41:04;20.10;;;18.67;;
75506;SDS011;64086;43.220;27.878;2023-07-13T07:43:29;19.88;;;18.30;;
75506;SDS011;64086;43.220;27.878;2023-07-13T07:45:55;20.17;;;18.45;;
75506;SDS011;64086;43.220;27.878;2023-07-13T07:48:20;20.75;;;19.25;;
75506;SDS011;64086;43.220;27.878;2023-07-13T07:50:46;20.15;;;18.75;;
75506;SDS011;64086;43.220;27.878;2023-07-13T07:53:11;20.30;;;18.60;;
75506;SDS011;64086;43.220;27.878;2023-07-13T07:55:37;20.00;;;17.98;;
75506;SDS011;64086;43.220;27.878;2023-07-13T07:58:03;18.58;;;17.27;;
75506;SDS011;64086;43.220;27.878;2023-07-13T08:00:29;20.52;;;18.73;;
75506;SDS011;64086;43.220;27.878;2023-07-13T08:02:56;18.60;;;17.23;;
75506;SDS011;64086;43.220;27.878;2023-07-13T08:05:22;19.95;;;18.30;;
75506;SDS011;64086;43.220;27.878;2023-07-13T08:07:48;17.98;;;16.65;;
75506;SDS011;64086;43.220;27.878;2023-07-13T08:10:13;18.35;;;17.05;;
75506;SDS011;64086;43.220;27.878;2023-07-13T08:12:39;18.45;;;17.00;;
75506;SDS011;64086;43.220;27.878;2023-07-13T08:15:06;17.48;;;16.30;;
75506;SDS011;64086;43.220;27.878;2023-07-13T08:17:34;17.42;;;15.88;;
75506;SDS011;64086;43.220;27.878;2023-07-13T08:20:00;18.00;;;16.35;;
75506;SDS011;64086;43.220;27.878;2023-07-13T08:22:25;18.13;;;16.83;;
75506;SDS011;64086;43.220;27.878;2023-07-13T08:24:51;17.25;;;15.68;;
75506;SDS011;64086;43.220;27.878;2023-07-13T08:27:21;16.80;;;15.70;;
75506;SDS011;64086;43.220;27.878;2023-07-13T08:29:48;17.92;;;16.67;;
75506;SDS011;64086;43.220;27.878;2023-07-13T08:32:14;17.20;;;15.90;;
75506;SDS011;64086;43.220;27.878;2023-07-13T08:34:39;15.85;;;14.57;;
75506;SDS011;64086;43.220;27.878;2023-07-13T08:37:05;17.45;;;16.15;;
75506;SDS011;64086;43.220;27.878;2023-07-13T08:39:31;16.73;;;15.23;;
75506;SDS011;64086;43.220;27.878;2023-07-13T08:42:01;16.27;;;15.18;;
75506;SDS011;64086;43.220;27.878;2023-07-13T08:44:36;17.20;;;15.60;;
75506;SDS011;64086;43.220;27.878;2023-07-13T08:47:05;17.77;;;16.40;;
75506;SDS011;64086;43.220;27.878;2023-07-13T08:49:31;17.65;;;16.45;;
75506;SDS011;64086;43.220;27.878;2023-07-13T08:52:03;18.33;;;17.13;;
75506;SDS011;64086;43.220;27.878;2023-07-13T08:57:13;18.20;;;16.88;;
75506;SDS011;64086;43.220;27.878;2023-07-13T08:59:40;18.17;;;16.98;;
75506;SDS011;64086;43.220;27.878;2023-07-13T09:04:59;18.55;;;17.17;;
75506;SDS011;64086;43.220;27.878;2023-07-13T09:17:48;19.38;;;18.08;;
75506;SDS011;64086;43.220;27.878;2023-07-13T09:23:05;18.85;;;17.55;;
75506;SDS011;64086;43.220;27.878;2023-07-13T09:25:36;18.50;;;17.13;;
75506;SDS011;64086;43.220;27.878;2023-07-13T09:28:08;19.08;;;17.58;;
75506;SDS011;64086;43.220;27.878;2023-07-13T09:33:08;19.60;;;17.85;;
75506;SDS011;64086;43.220;27.878;2023-07-13T09:35:34;19.40;;;17.90;;
75506;SDS011;64086;43.220;27.878;2023-07-13T09:43:15;18.10;;;16.48;;
75506;SDS011;64086;43.220;27.878;2023-07-13T09:45:41;18.25;;;17.02;;
75506;SDS011;64086;43.220;27.878;2023-07-13T09:48:11;18.23;;;16.92;;
75506;SDS011;64086;43.220;27.878;2023-07-13T09:50:38;17.83;;;16.63;;
75506;SDS011;64086;43.220;27.878;2023-07-13T09:53:04;18.38;;;17.00;;
75506;SDS011;64086;43.220;27.878;2023-07-13T09:55:40;18.20;;;16.77;;
75506;SDS011;64086;43.220;27.878;2023-07-13T10:00:41;18.45;;;16.88;;
75506;SDS011;64086;43.220;27.878;2023-07-13T10:05:44;17.48;;;16.15;;
75506;SDS011;64086;43.220;27.878;2023-07-13T10:08:17;18.40;;;16.90;;
75506;SDS011;64086;43.220;27.878;2023-07-13T10:10:58;18.35;;;17.00;;
75506;SDS011;64086;43.220;27.878;2023-07-13T10:13:29;18.60;;;17.15;;
75506;SDS011;64086;43.220;27.878;2023-07-13T10:15:56;19.45;;;17.98;;
75506;SDS011;64086;43.220;27.878;2023-07-13T10:18:23;19.88;;;18.17;;
75506;SDS011;64086;43.220;27.878;2023-07-13T10:20:50;19.30;;;17.90;;
75506;SDS011;64086;43.220;27.878;2023-07-13T10:23:21;19.30;;;17.80;;
75506;SDS011;64086;43.220;27.878;2023-07-13T10:25:49;18.73;;;17.38;;
75506;SDS011;64086;43.220;27.878;2023-07-13T10:28:25;19.15;;;17.85;;
75506;SDS011;64086;43.220;27.878;2023-07-13T10:30:51;20.10;;;18.67;;
75506;SDS011;64086;43.220;27.878;2023-07-13T10:33:18;19.58;;;17.90;;
75506;SDS011;64086;43.220;27.878;2023-07-13T10:35:43;19.30;;;17.95;;
75506;SDS011;64086;43.220;27.878;2023-07-13T10:38:11;19.30;;;17.77;;
75506;SDS011;64086;43.220;27.878;2023-07-13T10:40:39;20.40;;;18.90;;
75506;SDS011;64086;43.220;27.878;2023-07-13T10:43:17;18.67;;;17.17;;
75506;SDS011;64086;43.220;27.878;2023-07-13T10:45:46;20.67;;;18.88;;
75506;SDS011;64086;43.220;27.878;2023-07-13T10:48:15;19.90;;;18.23;;
75506;SDS011;64086;43.220;27.878;2023-07-13T10:50:41;19.98;;;18.38;;
75506;SDS011;64086;43.220;27.878;2023-07-13T10:58:37;19.27;;;17.80;;
75506;SDS011;64086;43.220;27.878;2023-07-13T11:11:47;19.80;;;18.05;;
75506;SDS011;64086;43.220;27.878;2023-07-13T11:20:18;18.92;;;17.48;;
75506;SDS011;64086;43.220;27.878;2023-07-13T11:22:49;19.85;;;18.20;;
75506;SDS011;64086;43.220;27.878;2023-07-13T11:25:21;20.33;;;18.73;;
75506;SDS011;64086;43.220;27.878;2023-07-13T11:27:52;19.75;;;18.15;;
75506;SDS011;64086;43.220;27.878;2023-07-13T11:35:33;19.30;;;17.70;;
75506;SDS011;64086;43.220;27.878;2023-07-13T11:38:01;19.95;;;18.42;;
75506;SDS011;64086;43.220;27.878;2023-07-13T11:40:27;20.85;;;19.30;;
75506;SDS011;64086;43.220;27.878;2023-07-13T11:43:02;19.92;;;18.42;;
75506;SDS011;64086;43.220;27.878;2023-07-13T11:45:32;20.80;;;19.15;;
75506;SDS011;64086;43.220;27.878;2023-07-13T11:47:58;21.33;;;19.63;;
75506;SDS011;64086;43.220;27.878;2023-07-13T11:50:25;19.45;;;18.15;;
75506;SDS011;64086;43.220;27.878;2023-07-13T11:52:52;20.50;;;18.95;;
75506;SDS011;64086;43.220;27.878;2023-07-13T11:55:19;20.80;;;19.02;;
75506;SDS011;64086;43.220;27.878;2023-07-13T11:58:05;20.23;;;18.63;;
75506;SDS011;64086;43.220;27.878;2023-07-13T12:00:31;19.58;;;18.17;;
75506;SDS011;64086;43.220;27.878;2023-07-13T12:02:58;20.77;;;19.15;;
75506;SDS011;64086;43.220;27.878;2023-07-13T12:05:25;19.88;;;18.05;;
75506;SDS011;64086;43.220;27.878;2023-07-13T12:07:51;20.38;;;18.92;;
75506;SDS011;64086;43.220;27.878;2023-07-13T12:10:29;20.42;;;18.92;;
75506;SDS011;64086;43.220;27.878;2023-07-13T12:15:23;20.10;;;18.60;;
75506;SDS011;64086;43.220;27.878;2023-07-13T12:18:02;20.73;;;18.92;;
75506;SDS011;64086;43.220;27.878;2023-07-13T12:20:30;19.55;;;18.05;;
75506;SDS011;64086;43.220;27.878;2023-07-13T12:22:59;19.47;;;18.03;;
75506;SDS011;64086;43.220;27.878;2023-07-13T12:25:27;19.58;;;18.02;;
75506;SDS011;64086;43.220;27.878;2023-07-13T12:27:53;20.30;;;18.77;;
75506;SDS011;64086;43.220;27.878;2023-07-13T12:33:01;19.65;;;18.10;;
75506;SDS011;64086;43.220;27.878;2023-07-13T12:35:38;19.55;;;18.02;;
75506;SDS011;64086;43.220;27.878;2023-07-13T12:38:08;20.25;;;18.65;;
75506;SDS011;64086;43.220;27.878;2023-07-13T12:40:36;19.02;;;17.63;;
75506;SDS011;64086;43.220;27.878;2023-07-13T12:43:02;19.70;;;17.88;;
75506;SDS011;64086;43.220;27.878;2023-07-13T12:45:29;19.35;;;17.83;;
75506;SDS011;64086;43.220;27.878;2023-07-13T12:48:02;20.05;;;18.23;;
75506;SDS011;64086;43.220;27.878;2023-07-13T12:50:37;20.27;;;18.65;;
75506;SDS011;64086;43.220;27.878;2023-07-13T12:53:09;19.58;;;18.08;;
75506;SDS011;64086;43.220;27.878;2023-07-13T12:55:49;18.40;;;17.10;;
75506;SDS011;64086;43.220;27.878;2023-07-13T12:58:18;19.23;;;17.83;;
75506;SDS011;64086;43.220;27.878;2023-07-13T13:00:50;19.80;;;18.20;;
75506;SDS011;64086;43.220;27.878;2023-07-13T13:03:25;18.83;;;17.10;;
75506;SDS011;64086;43.220;27.878;2023-07-13T13:06:42;18.58;;;17.08;;
75506;SDS011;64086;43.220;27.878;2023-07-13T13:08:47;19.15;;;17.50;;
75506;SDS011;64086;43.220;27.878;2023-07-13T13:11:14;18.75;;;17.23;;
75506;SDS011;64086;43.220;27.878;2023-07-13T13:13:43;17.83;;;16.33;;
75506;SDS011;64086;43.220;27.878;2023-07-13T13:18:36;17.27;;;15.88;;
75506;SDS011;64086;43.220;27.878;2023-07-13T13:21:01;17.73;;;16.33;;
75506;SDS011;64086;43.220;27.878;2023-07-13T13:23:28;17.50;;;16.02;;
75506;SDS011;64086;43.220;27.878;2023-07-13T13:25:53;18.23;;;16.83;;
75506;SDS011;64086;43.220;27.878;2023-07-13T13:28:19;18.80;;;16.90;;
75506;SDS011;64086;43.220;27.878;2023-07-13T13:30:46;17.20;;;15.98;;
75506;SDS011;64086;43.220;27.878;2023-07-13T13:33:13;17.25;;;15.95;;
75506;SDS011;64086;43.220;27.878;2023-07-13T13:35:40;17.85;;;16.33;;
75506;SDS011;64086;43.220;27.878;2023-07-13T13:38:13;17.13;;;15.75;;
75506;SDS011;64086;43.220;27.878;2023-07-13T13:40:40;18.30;;;16.75;;
75506;SDS011;64086;43.220;27.878;2023-07-13T13:43:16;19.17;;;17.60;;
75506;SDS011;64086;43.220;27.878;2023-07-13T13:45:43;18.42;;;16.90;;
75506;SDS011;64086;43.220;27.878;2023-07-13T13:48:19;17.17;;;15.88;;
75506;SDS011;64086;43.220;27.878;2023-07-13T13:50:47;17.77;;;16.48;;
75506;SDS011;64086;43.220;27.878;2023-07-13T13:53:13;17.52;;;16.27;;
75506;SDS011;64086;43.220;27.878;2023-07-13T13:55:39;17.92;;;16.33;;
75506;SDS011;64086;43.220;27.878;2023-07-13T13:58:07;18.17;;;16.85;;
75506;SDS011;64086;43.220;27.878;2023-07-13T14:00:34;19.10;;;17.60;;
75506;SDS011;64086;43.220;27.878;2023-07-13T14:03:00;19.42;;;17.73;;
75506;SDS011;64086;43.220;27.878;2023-07-13T14:05:25;18.95;;;17.55;;
75506;SDS011;64086;43.220;27.878;2023-07-13T14:07:52;18.90;;;17.23;;
75506;SDS011;64086;43.220;27.878;2023-07-13T14:10:20;18.58;;;16.95;;
75506;SDS011;64086;43.220;27.878;2023-07-13T14:12:47;19.17;;;17.50;;
75506;SDS011;64086;43.220;27.878;2023-07-13T14:15:21;19.83;;;18.27;;
75506;SDS011;64086;43.220;27.878;2023-07-13T14:17:48;18.25;;;16.92;;
75506;SDS011;64086;43.220;27.878;2023-07-13T14:20:15;19.60;;;18.05;;
75506;SDS011;64086;43.220;27.878;2023-07-13T14:22:42;19.45;;;17.83;;
75506;SDS011;64086;43.220;27.878;2023-07-13T14:25:14;19.00;;;17.70;;
75506;SDS011;64086;43.220;27.878;2023-07-13T14:27:41;20.25;;;18.48;;
75506;SDS011;64086;43.220;27.878;2023-07-13T14:32:39;20.38;;;18.65;;
75506;SDS011;64086;43.220;27.878;2023-07-13T14:35:05;20.23;;;18.45;;
75506;SDS011;64086;43.220;27.878;2023-07-13T14:37:31;21.48;;;19.58;;
75506;SDS011;64086;43.220;27.878;2023-07-13T14:39:56;20.70;;;19.10;;
75506;SDS011;64086;43.220;27.878;2023-07-13T14:42:22;20.85;;;19.13;;
75506;SDS011;64086;43.220;27.878;2023-07-13T14:44:47;21.55;;;19.73;;
75506;SDS011;64086;43.220;27.878;2023-07-13T14:47:13;20.27;;;18.70;;
75506;SDS011;64086;43.220;27.878;2023-07-13T14:49:42;21.02;;;19.42;;
75506;SDS011;64086;43.220;27.878;2023-07-13T14:52:21;21.15;;;19.33;;
75506;SDS011;64086;43.220;27.878;2023-07-13T14:54:48;20.42;;;18.83;;
75506;SDS011;64086;43.220;27.878;2023-07-13T14:57:17;21.00;;;19.23;;
75506;SDS011;64086;43.220;27.878;2023-07-13T14:59:44;20.83;;;19.23;;
75506;SDS011;64086;43.220;27.878;2023-07-13T15:02:29;20.35;;;18.85;;
75506;SDS011;64086;43.220;27.878;2023-07-13T15:04:56;21.08;;;19.25;;
75506;SDS011;64086;43.220;27.878;2023-07-13T15:07:22;21.52;;;19.85;;
75506;SDS011;64086;43.220;27.878;2023-07-13T15:09:48;21.17;;;19.52;;
75506;SDS011;64086;43.220;27.878;2023-07-13T15:12:14;21.35;;;19.52;;
75506;SDS011;64086;43.220;27.878;2023-07-13T15:14:39;20.65;;;18.92;;
75506;SDS011;64086;43.220;27.878;2023-07-13T15:17:23;21.63;;;19.80;;
75506;SDS011;64086;43.220;27.878;2023-07-13T15:19:51;21.52;;;19.92;;
75506;SDS011;64086;43.220;27.878;2023-07-13T15:22:16;21.90;;;20.00;;